Aérodrome :
LOGIN :

S'inscrire | Disclaimer

   EN    FR    IT 

 










Légende :    VFR   VFR Marginal   IFR   IFR Intensif   IFR Très Intensif
Visi : 
Plafond : 
>= 8 km
>= 3000ft
5 à 8 km
1000 à 3000 ft
1500m à 5 km
500 à 1000 ft
800 à 1500m
200 à 500 ft
< 800m
< 200 ft
Symboles :   Orages  Brouillard  Fortes neiges  Fortes précipitations  Vent > 20 kt
SIGMETs :   Divers  Orages  Givrage  Turbulence  Onde Orograph.  Cendres Volcan.







- Altitude de l'aérodrome : 82 ft
- Code IATA : AAR


EKAH - Aarhus Tirstrup

DERNIER METAR :
  • 160420Z AUTO 26005KT 9999NDV BKN014/// BKN030/// 13/13 Q1011

METARs EXPIRÉS :
  • 160350Z AUTO 24004KT 210V270 9999NDV OVC014/// 13/13 Q1011
  • 160320Z AUTO 26004KT 9999NDV OVC005/// 13/13 Q1012
  • 160250Z AUTO 26006KT 7000NDV OVC004/// 13/13 Q1012
  • 160220Z AUTO 26006KT 230V290 7000NDV OVC006/// 14/13 Q1012
  • 160150Z AUTO 25004KT 9999NDV OVC006/// 14/13 Q1012

TAF TAF EKAH
Valide du 16 à 00h jusqu'au 17 à 00h UTC


152320Z 1600/1624 30008KT 9999 BKN020
TEMPO 1600/1607 1500 BR BKN002
TEMPO 1607/1608 BKN010
Pas de NOTAMs connus pour ce terrain.



MET'MAP, la Météo Aéronautique d'un coup d'oeil ! - Copyright ORBIFLY Décembre 2007 - Disclaimer

ORBIFLY MET'MAP TEAM :

Programmation & Développement : Alexandra Zaïnal
Conception & Développement : Baudouin d'Aumeries
Co-Programmation & Développement : Marc-Olivier Méhu
Soutien technique & logistique : Manuel Goepfert

Contact : metmap@orbifly.com




SOURCES & CREDITS :

   NOAA